ADDS METAR Data INFO
IDs: Format: Raw Decoded Include TAF

Data at: 0336 UTC 19 Feb 2018

KMWM 190315Z AUTO 33019G22KT 10SM CLR M02/M11 A2970 RMK AO2
KMWM 190255Z AUTO 33019KT 10SM CLR M02/M10 A2969 RMK AO2
KMWM 190235Z AUTO 33016G19KT 10SM CLR M01/M09 A2967 RMK AO2
KMWM 190215Z AUTO 32016KT 10SM CLR 00/M09 A2967 RMK AO2
KMWM 190155Z AUTO 34016G19KT 10SM CLR 01/M08 A2964 RMK AO2
KMWM 190135Z AUTO 33016KT 10SM CLR 01/M08 A2964 RMK AO2
KMWM 190115Z AUTO 32012KT 10SM CLR 02/M08 A2965 RMK AO2
KMWM 190055Z AUTO 30008KT 10SM CLR 02/M07 A2964 RMK AO2
KMWM 190035Z AUTO 00000KT 10SM CLR 02/M07 A2962 RMK AO2
KMWM 190015Z AUTO 00000KT 10SM CLR 03/M06 A2961 RMK AO2
KMWM 182355Z AUTO 00000KT 10SM CLR 03/M06 A2960 RMK AO2
KMWM 182335Z AUTO 21004KT 10SM CLR 03/M06 A2959 RMK AO2
KMWM 182315Z AUTO 20006KT 10SM CLR 04/M06 A2958 RMK AO2
KMWM 182255Z AUTO 20009KT 10SM CLR 04/M06 A2957 RMK AO2
KMWM 182235Z AUTO 19008KT 10SM CLR 04/M06 A2958 RMK AO2
KMWM 182215Z AUTO 20012KT 10SM CLR 05/M05 A2957 RMK AO2
KMWM 182155Z AUTO 20012KT 10SM CLR 05/M05 A2955 RMK AO2
KMWM 182135Z AUTO 19011G19KT 10SM CLR 05/M05 A2956 RMK AO2
KMWM 182115Z AUTO 19012G15KT 10SM CLR 05/M05 A2956 RMK AO2
KMWM 182055Z AUTO 19010G18KT 10SM CLR 05/M05 A2956 RMK AO2
KMWM 182035Z AUTO 19016G21KT 10SM CLR 06/M05 A2956 RMK AO2
KMWM 182015Z AUTO 19016G23KT 10SM CLR 06/M05 A2955 RMK AO2
KMWM 181955Z AUTO 19019G27KT 10SM CLR 05/M06 A2956 RMK AO2
KMWM 181935Z AUTO 19020G24KT 10SM CLR 06/M06 A2956 RMK AO2
KMWM 181915Z AUTO 19015G20KT 10SM CLR 06/M06 A2957 RMK AO2
KMWM 181855Z AUTO 19016G22KT 10SM CLR 06/M06 A2957 RMK AO2
KMWM 181835Z AUTO 18013G19KT 10SM CLR 05/M06 A2957 RMK AO2
KMWM 181815Z AUTO 18016G23KT 10SM CLR 05/M06 A2958 RMK AO2
KMWM 181755Z AUTO 19017G29KT 10SM CLR 05/M06 A2959 RMK AO2
KMWM 181735Z AUTO 18020G27KT 10SM CLR 05/M06 A2958 RMK AO2
KMWM 181715Z AUTO 18018G23KT 10SM CLR 04/M07 A2958 RMK AO2
KMWM 181656Z AUTO 17021G29KT 10SM CLR 03/M07 A2956 RMK AO2
KMWM 181635Z AUTO 17022G32KT 10SM CLR 03/M08 A2957 RMK AO2
KMWM 181615Z AUTO 17027G37KT 10SM CLR 02/M08 A2956 RMK AO2
KMWM 181556Z AUTO 17023G33KT 10SM CLR 02/M08 A2959 RMK AO2
KMWM 181535Z AUTO 16023G31KT 4SM HZ CLR 01/M09 A2961 RMK AO2
KMWM 181515Z AUTO 17022G30KT 3SM -SN CLR 01/M09 A2963 RMK AO2
KMWM 181455Z AUTO 15026G32KT 5SM HZ CLR 01/M09 A2962 RMK AO2
KMWM 181435Z AUTO 15023G32KT 7SM CLR 00/M09 A2965 RMK AO2
KMWM 181415Z AUTO 15025KT 7SM CLR M02/M11 A2967 RMK AO2
KMWM 181355Z AUTO 14021G27KT 4SM HZ CLR M03/M12 A2969 RMK AO2
KMWM 181335Z AUTO 14021G30KT 4SM HZ CLR M04/M12 A2972 RMK AO2
KMWM 181315Z AUTO 14021G27KT 2 1/2SM -SN CLR M04/M12 A2974 RMK AO2 VIS 1 1/2V5
KMWM 181255Z AUTO 14018G24KT 3SM HZ CLR M04/M12 A2976 RMK AO2
KMWM 181235Z AUTO 14019G24KT 4SM HZ CLR M04/M12 A2978 RMK AO2
KMWM 181215Z AUTO 13017G23KT 10SM CLR M04/M12 A2980 RMK AO2
KMWM 181156Z AUTO 13015KT 10SM CLR M05/M12 A2983 RMK AO2
KMWM 181135Z AUTO 13014G21KT 10SM CLR M05/M12 A2984 RMK AO2
KMWM 181115Z AUTO 13014KT 10SM CLR M05/M12 A2986 RMK AO2
KMWM 181055Z AUTO 14012KT 10SM CLR M05/M13 A2989 RMK AO2
KMWM 181035Z AUTO 14011KT 10SM SCT120 M05/M13 A2991 RMK AO2
KMWM 181015Z AUTO 13009KT 10SM SCT120 M06/M13 A2992 RMK AO2
KMWM 180955Z AUTO 12007KT 10SM BKN120 M07/M14 A2991 RMK AO2
KMWM 180935Z AUTO 11006KT 10SM SCT120 M07/M14 A2993 RMK AO2
KMWM 180915Z AUTO 08004KT 10SM BKN110 M07/M14 A2995 RMK AO2
KMWM 180855Z AUTO 13003KT 10SM SCT110 M08/M14 A2998 RMK AO2
KMWM 180835Z AUTO 11005KT 10SM SCT100 M08/M14 A2998 RMK AO2
KMWM 180815Z AUTO 13003KT 10SM BKN100 M07/M14 A2999 RMK AO2
KMWM 180755Z AUTO 11003KT 10SM SCT100 M08/M15 A2998 RMK AO2
KMWM 180735Z AUTO 00000KT 10SM OVC100 M09/M16 A3001 RMK AO2
KMWM 180716Z AUTO 00000KT 10SM BKN100 M08/M15 A3003 RMK AO2
KMWM 180655Z AUTO 16003KT 10SM SCT110 M09/M16 A3003 RMK AO2
KMWM 180635Z AUTO 00000KT 10SM CLR M09/M16 A3003 RMK AO2
KMWM 180616Z AUTO 19003KT 10SM CLR M09/M16 A3003 RMK AO2
KMWM 180555Z AUTO 19005KT 10SM CLR M09/M16 A3004 RMK AO2
KMWM 180535Z AUTO 17003KT 10SM CLR M09/M17 A3002 RMK AO2
KMWM 180515Z AUTO 00000KT 10SM CLR M08/M16 A3003 RMK AO2
KMWM 180455Z AUTO 00000KT 10SM CLR M09/M17 A3004 RMK AO2
KMWM 180435Z AUTO 21006KT 10SM CLR M08/M15 A3006 RMK AO2
KMWM 180415Z AUTO 21007KT 10SM CLR M08/M15 A3007 RMK AO2
KMWM 180355Z AUTO 24005KT 10SM CLR M07/M14 A3006 RMK AO2
KMWM 180335Z AUTO 21005KT 10SM CLR M07/M14 A3007 RMK AO2
KMWM 180315Z AUTO 22005KT 10SM CLR M07/M15 A3006 RMK AO2
KMWM 180255Z AUTO 23004KT 10SM CLR M06/M14 A3005 RMK AO2
KMWM 180235Z AUTO 22006KT 10SM CLR M06/M14 A3005 RMK AO2
KMWM 180215Z AUTO 20003KT 10SM CLR M06/M14 A3005 RMK AO2
KMWM 180155Z AUTO 23004KT 10SM CLR M07/M14 A3005 RMK AO2
KMWM 180135Z AUTO 24008KT 10SM CLR M06/M14 A3006 RMK AO2
KMWM 180115Z AUTO 25007KT 10SM CLR M06/M14 A3005 RMK AO2
KMWM 180055Z AUTO 26005KT 10SM CLR M05/M14 A3004 RMK AO2
KMWM 180035Z AUTO 27006KT 10SM CLR M04/M13 A3003 RMK AO2
KMWM 180015Z AUTO 27006KT 10SM CLR M04/M13 A3002 RMK AO2
KMWM 172355Z AUTO 27010KT 10SM CLR M03/M12 A3000 RMK AO2
KMWM 172335Z AUTO 27011KT 10SM CLR M02/M12 A3000 RMK AO2
KMWM 172315Z AUTO 29012KT 10SM CLR M01/M11 A2999 RMK AO2
KMWM 172255Z AUTO 29013KT 10SM CLR M01/M11 A2998 RMK AO2
KMWM 172235Z AUTO 29012KT 10SM CLR 00/M10 A2998 RMK AO2
KMWM 172215Z AUTO 29009KT 10SM CLR 01/M09 A2998 RMK AO2
KMWM 172155Z AUTO 30008KT 10SM CLR 01/M09 A2998 RMK AO2
KMWM 172135Z AUTO 30009KT 10SM CLR 01/M09 A2996 RMK AO2
KMWM 172115Z AUTO 29013KT 10SM CLR 01/M09 A2996 RMK AO2
KMWM 172055Z AUTO 28013KT 10SM CLR 01/M09 A2995 RMK AO2
KMWM 172035Z AUTO 27012KT 10SM CLR 01/M08 A2994 RMK AO2
KMWM 172015Z AUTO 28014KT 10SM CLR 01/M09 A2994 RMK AO2
KMWM 171955Z AUTO 29011KT 10SM CLR 01/M08 A2993 RMK AO2
KMWM 171935Z AUTO 28014KT 10SM CLR 01/M08 A2993 RMK AO2
KMWM 171915Z AUTO 27012KT 10SM 01/M08 A2992 RMK AO2
KMWM 171855Z AUTO 27010KT 10SM BKN021 01/M08 A2992 RMK AO2
KMWM 171835Z AUTO 28011KT 10SM CLR 00/M08 A2992 RMK AO2
KMWM 171815Z AUTO 28013KT 10SM CLR M01/M09 A2992 RMK AO2
KMWM 171755Z AUTO 27011KT 10SM CLR 00/M09 A2991 RMK AO2
KMWM 171735Z AUTO 26010KT 10SM CLR M01/M09 A2991 RMK AO2
KMWM 171715Z AUTO 26011KT 10SM CLR M02/M10 A2990 RMK AO2
KMWM 171655Z AUTO 25011KT 10SM CLR M02/M11 A2990 RMK AO2
KMWM 171635Z AUTO 26012KT 10SM SCT008 M03/M11 A2989 RMK AO2
KMWM 171615Z AUTO 26012KT 10SM SCT008 M03/M11 A2989 RMK AO2
KMWM 171555Z AUTO 26009KT 10SM SCT009 SCT018 BKN026 M03/M11 A2988 RMK AO2